Time;durP1;ratioP1;P1;durP2;ratioP2;P2;SDS_P1;SDS_P2;PMS_P1;PMS_P2;Temp;Humidity;BMP_temperature;BMP_pressure;BME280_temperature;BME280_humidity;BME280_pressure;Samples;Min_cycle;Max_cycle;Signal;HPM_P1;HPM_P2
2022/05/30 00:02:02;;;;;;;4.95;1.20;;;;;;;;;;4764012;30;20071;-74
2022/05/30 00:04:36;;;;;;;7.32;1.30;;;;;;;;;;4765308;30;20052;-73
2022/05/30 00:07:07;;;;;;;10.07;1.63;;;;;;;;;;4765239;30;20420;-74
2022/05/30 00:09:38;;;;;;;3.42;0.93;;;;;;;;;;4766146;30;20040;-75
2022/05/30 00:12:08;;;;;;;3.08;1.00;;;;;;;;;;4765202;30;20055;-74
2022/05/30 00:14:38;;;;;;;9.40;1.23;;;;;;;;;;4765512;30;20048;-74
2022/05/30 00:17:08;;;;;;;6.85;1.40;;;;;;;;;;4764570;30;20055;-74
2022/05/30 00:19:39;;;;;;;9.25;1.25;;;;;;;;;;4765411;30;20051;-75
2022/05/30 00:22:13;;;;;;;6.68;1.30;;;;;;;;;;4764889;30;20063;-74
2022/05/30 00:24:43;;;;;;;1.95;0.90;;;;;;;;;;4765049;30;20056;-74
2022/05/30 00:27:14;;;;;;;4.32;1.38;;;;;;;;;;4763693;30;20055;-74
2022/05/30 00:29:44;;;;;;;8.68;1.17;;;;;;;;;;4765320;30;20052;-73
2022/05/30 00:32:14;;;;;;;10.20;1.30;;;;;;;;;;4765042;30;20365;-74
2022/05/30 00:34:44;;;;;;;7.55;1.52;;;;;;;;;;4765811;30;20075;-74
2022/05/30 00:37:14;;;;;;;5.80;1.13;;;;;;;;;;4765030;30;20055;-75
2022/05/30 00:39:44;;;;;;;2.63;1.05;;;;;;;;;;4764277;30;20058;-74
2022/05/30 00:42:20;;;;;;;11.15;1.50;;;;;;;;;;4764962;30;20063;-76
2022/05/30 00:44:50;;;;;;;5.80;1.33;;;;;;;;;;4765152;30;20059;-74
2022/05/30 00:47:22;;;;;;;11.68;1.52;;;;;;;;;;4764814;30;20063;-74
2022/05/30 00:49:55;;;;;;;7.32;1.33;;;;;;;;;;4764505;30;20405;-74
2022/05/30 00:52:32;;;;;;;3.97;0.95;;;;;;;;;;4763018;30;20059;-75
2022/05/30 00:55:07;;;;;;;5.00;1.20;;;;;;;;;;4780647;29;20447;-74
2022/05/30 00:57:39;;;;;;;9.40;1.13;;;;;;;;;;4780559;29;20070;-74
2022/05/30 01:00:14;;;;;;;5.20;1.13;;;;;;;;;;4780828;30;20055;-74
2022/05/30 01:08:31;;;;;;;7.28;1.63;;;;;;;;;;4782014;29;20058;-75
2022/05/30 01:11:01;;;;;;;12.93;1.48;;;;;;;;;;4781060;30;20078;-75
2022/05/30 01:13:32;;;;;;;4.28;1.20;;;;;;;;;;4782121;30;20055;-74
2022/05/30 01:16:02;;;;;;;10.80;1.48;;;;;;;;;;4781410;30;20059;-73
2022/05/30 01:18:44;;;;;;;5.68;1.13;;;;;;;;;;4780816;29;20432;-73
2022/05/30 01:21:39;;;;;;;6.55;1.58;;;;;;;;;;4782155;30;20082;-74
2022/05/30 01:24:21;;;;;;;8.90;1.60;;;;;;;;;;4780718;30;20063;-75
2022/05/30 01:27:20;;;;;;;6.65;1.48;;;;;;;;;;4782287;29;20067;-73
2022/05/30 01:30:01;;;;;;;6.88;1.67;;;;;;;;;;4780887;30;20055;-76
2022/05/30 01:32:32;;;;;;;5.82;1.60;;;;;;;;;;4780993;29;20059;-77
2022/05/30 01:35:04;;;;;;;10.40;1.77;;;;;;;;;;4780922;30;20420;-75
2022/05/30 01:37:38;;;;;;;8.45;1.85;;;;;;;;;;4780116;30;20503;-74
2022/05/30 01:40:10;;;;;;;9.60;1.27;;;;;;;;;;4781028;29;20515;-74
2022/05/30 01:42:40;;;;;;;6.18;1.48;;;;;;;;;;4780597;29;20070;-74
2022/05/30 01:45:11;;;;;;;8.40;1.17;;;;;;;;;;4780234;29;20096;-73
2022/05/30 01:47:41;;;;;;;14.45;1.70;;;;;;;;;;4780577;30;20066;-74
2022/05/30 01:50:11;;;;;;;8.18;1.52;;;;;;;;;;4780984;29;20058;-74
2022/05/30 01:52:42;;;;;;;8.10;1.15;;;;;;;;;;4779573;30;20411;-76
2022/05/30 01:55:14;;;;;;;13.32;1.58;;;;;;;;;;4780092;30;20070;-74
2022/05/30 01:58:10;;;;;;;6.60;1.15;;;;;;;;;;4798427;29;20046;-75
2022/05/30 02:01:15;;;;;;;3.58;1.02;;;;;;;;;;4787179;29;20062;-74
2022/05/30 02:03:46;;;;;;;20.05;2.05;;;;;;;;;;4799875;29;20514;-75
2022/05/30 02:06:16;;;;;;;;;;;;;;;;;;4799878;29;20058;-75
2022/05/30 02:08:48;;;;;;;4.28;1.02;;;;;;;;;;4800038;29;19929;-74
2022/05/30 02:11:20;;;;;;;16.00;1.27;;;;;;;;;;4799293;29;20058;-74
2022/05/30 02:13:52;;;;;;;11.52;1.23;;;;;;;;;;4799571;29;20549;-74
2022/05/30 02:19:22;;;;;;;12.15;1.10;;;;;;;;;;4800535;29;20502;-76
2022/05/30 02:21:52;;;;;;;7.13;1.25;;;;;;;;;;4799655;29;20062;-75
2022/05/30 02:24:23;;;;;;;5.28;1.10;;;;;;;;;;4800080;29;20066;-75
2022/05/30 02:26:53;;;;;;;9.17;1.20;;;;;;;;;;4799612;29;20680;-75
2022/05/30 02:29:24;;;;;;;6.50;1.40;;;;;;;;;;4800113;29;20088;-76
2022/05/30 02:31:59;;;;;;;5.40;1.10;;;;;;;;;;4818900;29;20055;-74
2022/05/30 02:37:21;;;;;;;4.80;1.20;;;;;;;;;;4802919;29;20055;-76
2022/05/30 02:39:53;;;;;;;16.65;1.20;;;;;;;;;;4803091;29;20066;-74
2022/05/30 02:42:49;;;;;;;10.65;1.25;;;;;;;;;;4779151;29;20059;-75
2022/05/30 02:45:20;;;;;;;13.45;1.25;;;;;;;;;;4803172;29;20081;-75
2022/05/30 02:47:50;;;;;;;8.43;1.83;;;;;;;;;;4802714;29;20058;-74
2022/05/30 02:50:20;;;;;;;8.85;1.20;;;;;;;;;;4803104;29;20050;-74
2022/05/30 02:52:50;;;;;;;22.65;1.65;;;;;;;;;;4819953;29;20443;-74
2022/05/30 02:55:35;;;;;;;17.10;1.55;;;;;;;;;;4802728;29;20065;-75
2022/05/30 02:58:05;;;;;;;5.33;1.30;;;;;;;;;;4725423;29;2325568;-73
2022/05/30 03:00:35;;;;;;;11.52;1.70;;;;;;;;;;4804095;29;20059;-74
2022/05/30 03:03:05;;;;;;;19.27;1.58;;;;;;;;;;4803258;29;20062;-74
2022/05/30 03:05:38;;;;;;;4.50;1.23;;;;;;;;;;4820132;29;20061;-75
2022/05/30 03:08:09;;;;;;;9.48;1.48;;;;;;;;;;4804000;29;20054;-75
2022/05/30 03:11:11;;;;;;;10.32;1.63;;;;;;;;;;4790367;29;20419;-75
2022/05/30 03:13:42;;;;;;;4.38;0.93;;;;;;;;;;4803661;29;20061;-76
2022/05/30 03:16:13;;;;;;;13.48;1.50;;;;;;;;;;4803565;29;20051;-73
2022/05/30 03:18:45;;;;;;;3.38;1.20;;;;;;;;;;4803677;29;20515;-74
2022/05/30 03:21:16;;;;;;;3.90;1.17;;;;;;;;;;4820303;29;20510;-73
2022/05/30 03:23:46;;;;;;;4.82;1.30;;;;;;;;;;4803823;29;20062;-74
2022/05/30 03:26:23;;;;;;;10.82;1.35;;;;;;;;;;4803295;29;20058;-74
2022/05/30 03:28:53;;;;;;;5.53;1.20;;;;;;;;;;4803605;29;20058;-74
2022/05/30 03:31:23;;;;;;;10.30;1.20;;;;;;;;;;4820490;29;20058;-76
2022/05/30 03:33:53;;;;;;;19.83;1.58;;;;;;;;;;4804086;29;20058;-73
2022/05/30 03:36:26;;;;;;;6.85;1.20;;;;;;;;;;4820929;29;20506;-74
2022/05/30 03:38:56;;;;;;;8.98;1.33;;;;;;;;;;4820840;29;20058;-73
2022/05/30 03:41:45;;;;;;;8.77;1.35;;;;;;;;;;4824009;29;20532;-75
2022/05/30 03:44:23;;;;;;;12.80;1.60;;;;;;;;;;4803546;29;20058;-73
2022/05/30 03:46:53;;;;;;;7.18;1.17;;;;;;;;;;4803202;29;20054;-74
2022/05/30 03:49:23;;;;;;;7.95;1.35;;;;;;;;;;4801927;29;20434;-74
2022/05/30 03:51:53;;;;;;;10.68;1.42;;;;;;;;;;4802909;29;20065;-72
2022/05/30 03:54:25;;;;;;;5.50;1.30;;;;;;;;;;4803343;29;20058;-74
2022/05/30 03:56:55;;;;;;;11.45;1.63;;;;;;;;;;4803295;29;20054;-73
2022/05/30 03:59:27;;;;;;;11.27;1.48;;;;;;;;;;4782441;30;20405;-75
2022/05/30 04:02:02;;;;;;;9.85;1.80;;;;;;;;;;4781937;30;20082;-73
2022/05/30 04:04:33;;;;;;;16.17;1.67;;;;;;;;;;4783297;30;20051;-75
2022/05/30 04:07:03;;;;;;;4.38;1.30;;;;;;;;;;4782174;30;20412;-74
2022/05/30 04:09:49;;;;;;;9.93;1.50;;;;;;;;;;4782138;30;20055;-74
2022/05/30 04:12:38;;;;;;;11.90;1.55;;;;;;;;;;4787800;29;20495;-75
2022/05/30 04:15:35;;;;;;;7.93;1.45;;;;;;;;;;4762223;30;20059;-75
2022/05/30 04:18:06;;;;;;;7.13;1.50;;;;;;;;;;4782110;30;20059;-76
2022/05/30 04:20:36;;;;;;;7.38;1.52;;;;;;;;;;4781682;30;20439;-73
2022/05/30 04:23:07;;;;;;;11.35;1.55;;;;;;;;;;4781092;30;20063;-72
2022/05/30 04:25:53;;;;;;;17.80;1.83;;;;;;;;;;4782441;29;20139;-72
2022/05/30 04:28:25;;;;;;;6.53;1.27;;;;;;;;;;4782678;30;20059;-72
2022/05/30 04:31:15;;;;;;;3.78;1.20;;;;;;;;;;4783286;30;20066;-73
2022/05/30 04:33:45;;;;;;;22.60;1.90;;;;;;;;;;4781773;30;20063;-73
2022/05/30 04:36:16;;;;;;;11.77;1.33;;;;;;;;;;4780886;30;20528;-75
2022/05/30 04:38:53;;;;;;;8.38;1.75;;;;;;;;;;4780934;30;20090;-72
2022/05/30 04:41:42;;;;;;;11.25;1.50;;;;;;;;;;4788763;29;20071;-74
2022/05/30 04:44:31;;;;;;;9.50;1.63;;;;;;;;;;4786104;29;20063;-72
2022/05/30 04:47:36;;;;;;;8.85;1.58;;;;;;;;;;4782441;29;20059;-73
2022/05/30 04:50:13;;;;;;;11.10;1.75;;;;;;;;;;4781577;30;20362;-74
2022/05/30 04:52:46;;;;;;;4.93;1.33;;;;;;;;;;4780406;29;20055;-73
2022/05/30 04:55:36;;;;;;;20.40;1.88;;;;;;;;;;4782341;29;20063;-73
2022/05/30 04:58:11;;;;;;;10.40;2.30;;;;;;;;;;4780675;29;20059;-75
2022/05/30 05:01:03;;;;;;;8.75;1.75;;;;;;;;;;4782208;30;20062;-73
2022/05/30 05:03:37;;;;;;;13.05;2.25;;;;;;;;;;4780924;29;20066;-75
2022/05/30 05:06:18;;;;;;;7.38;2.20;;;;;;;;;;4780853;30;20063;-72
2022/05/30 05:08:55;;;;;;;7.68;2.00;;;;;;;;;;4780890;30;20066;-73
2022/05/30 05:11:37;;;;;;;5.70;1.80;;;;;;;;;;4786008;29;20146;-74
2022/05/30 05:14:25;;;;;;;3.90;1.58;;;;;;;;;;4783854;29;20059;-74
2022/05/30 05:17:14;;;;;;;4.28;1.88;;;;;;;;;;4787200;29;20070;-74
2022/05/30 05:19:45;;;;;;;13.88;2.30;;;;;;;;;;4780848;30;20063;-72
2022/05/30 05:22:16;;;;;;;11.48;2.38;;;;;;;;;;4781211;29;20066;-74
2022/05/30 05:24:45;;;;;;;11.73;2.20;;;;;;;;;;4780941;29;20047;-72
2022/05/30 05:27:18;;;;;;;9.07;1.92;;;;;;;;;;4781867;29;20432;-72
2022/05/30 05:29:52;;;;;;;10.02;1.88;;;;;;;;;;4780922;29;20521;-73
2022/05/30 05:32:23;;;;;;;8.70;2.00;;;;;;;;;;4782248;30;20534;-73
2022/05/30 05:34:53;;;;;;;4.60;1.80;;;;;;;;;;4780956;30;20055;-73
2022/05/30 05:37:24;;;;;;;7.60;1.80;;;;;;;;;;4780887;30;20308;-75
2022/05/30 05:40:14;;;;;;;10.25;1.92;;;;;;;;;;4782103;29;20074;-75
2022/05/30 05:42:45;;;;;;;8.73;2.08;;;;;;;;;;4780367;30;20546;-72
2022/05/30 05:45:16;;;;;;;6.72;1.77;;;;;;;;;;4781731;30;20534;-74
2022/05/30 05:47:47;;;;;;;10.38;1.85;;;;;;;;;;4780305;30;20313;-75
2022/05/30 05:50:17;;;;;;;10.80;2.15;;;;;;;;;;4780022;30;20487;-73
2022/05/30 05:52:48;;;;;;;5.85;1.80;;;;;;;;;;4780946;29;20062;-75
2022/05/30 05:55:22;;;;;;;9.88;1.88;;;;;;;;;;4780038;30;20150;-75
2022/05/30 05:57:53;;;;;;;7.75;2.22;;;;;;;;;;4775986;29;20066;-74
2022/05/30 06:00:22;;;;;;;7.78;1.73;;;;;;;;;;4801349;29;20062;-74
2022/05/30 06:02:53;;;;;;;13.90;2.08;;;;;;;;;;4800873;29;20077;-74
2022/05/30 06:05:42;;;;;;;8.68;2.40;;;;;;;;;;4788487;29;20057;-72
2022/05/30 06:08:35;;;;;;;15.00;2.38;;;;;;;;;;4817347;29;20054;-74
2022/05/30 06:11:21;;;;;;;10.48;2.30;;;;;;;;;;4801162;29;20054;-73
2022/05/30 06:13:57;;;;;;;9.35;1.80;;;;;;;;;;4801207;29;20061;-73
2022/05/30 06:16:33;;;;;;;7.43;2.03;;;;;;;;;;4785913;29;20061;-73
2022/05/30 06:19:03;;;;;;;9.63;2.00;;;;;;;;;;4818210;29;20411;-74
2022/05/30 06:21:34;;;;;;;7.55;2.10;;;;;;;;;;4817625;29;20054;-72
2022/05/30 06:24:05;;;;;;;5.78;1.80;;;;;;;;;;4817969;29;20428;-74
2022/05/30 06:27:17;;;;;;;7.45;2.10;;;;;;;;;;4743680;30;20060;-73
2022/05/30 06:30:06;;;;;;;13.30;2.17;;;;;;;;;;4748661;30;20424;-71
2022/05/30 06:32:37;;;;;;;9.05;1.90;;;;;;;;;;4782467;29;20081;-74
2022/05/30 06:35:11;;;;;;;9.50;1.95;;;;;;;;;;4786034;29;20058;-75
2022/05/30 06:37:41;;;;;;;;;;;;;;;;;;4802102;29;20058;-72
2022/05/30 06:40:13;;;;;;;13.00;2.13;;;;;;;;;;4800430;29;19951;-73
2022/05/30 06:42:46;;;;;;;9.43;1.77;;;;;;;;;;4800837;29;20425;-72
2022/05/30 06:45:32;;;;;;;4.93;2.10;;;;;;;;;;4820778;29;20050;-74
2022/05/30 06:48:32;;;;;;;3.65;2.00;;;;;;;;;;4751651;29;20517;-73
2022/05/30 06:51:35;;;;;;;4.65;1.73;;;;;;;;;;4817572;29;20705;-73
2022/05/30 06:54:08;;;;;;;6.53;2.17;;;;;;;;;;4817170;29;20054;-72
2022/05/30 06:58:11;;;;;;;6.75;2.25;;;;;;;;;;4800348;29;20058;-73
2022/05/30 06:59:35;;;;;;;8.15;2.55;;;;;;;;;;4800495;29;20054;-75
2022/05/30 07:02:08;;;;;;;4.35;1.98;;;;;;;;;;4800353;29;20065;-73
2022/05/30 07:05:14;;;;;;;9.55;2.30;;;;;;;;;;4778836;30;20065;-72
2022/05/30 07:08:23;;;;;;;5.32;2.00;;;;;;;;;;4781637;30;20059;-72
2022/05/30 07:11:31;;;;;;;10.73;1.92;;;;;;;;;;4760933;30;20056;-74
2022/05/30 07:14:02;;;;;;;;;;;;;;;;;;4746029;30;20056;-73
2022/05/30 07:16:32;;;;;;;6.20;2.25;;;;;;;;;;4783689;29;19928;-74
2022/05/30 07:19:03;;;;;;;4.32;2.10;;;;;;;;;;4803651;29;20530;-73
2022/05/30 07:21:38;;;;;;;8.10;2.35;;;;;;;;;;4802895;29;20065;-72
2022/05/30 07:24:28;;;;;;;6.07;1.92;;;;;;;;;;4824784;29;20050;-73
2022/05/30 07:27:17;;;;;;;9.95;2.20;;;;;;;;;;4822703;29;20054;-72
2022/05/30 07:30:06;;;;;;;4.38;1.88;;;;;;;;;;4821446;29;20046;-73
2022/05/30 07:32:55;;;;;;;5.05;2.17;;;;;;;;;;4823930;29;20070;-74
2022/05/30 07:35:44;;;;;;;9.70;2.20;;;;;;;;;;4822662;29;20058;-72
2022/05/30 07:38:28;;;;;;;5.18;2.20;;;;;;;;;;4803240;29;20426;-72
2022/05/30 07:41:08;;;;;;;11.45;2.63;;;;;;;;;;4809831;29;20085;-72
2022/05/30 07:43:52;;;;;;;11.05;3.28;;;;;;;;;;4803073;29;20541;-73
2022/05/30 07:46:48;;;;;;;11.80;2.80;;;;;;;;;;4816327;29;20423;-73
2022/05/30 07:49:32;;;;;;;3.75;2.47;;;;;;;;;;4819972;29;20636;-74
2022/05/30 07:52:27;;;;;;;7.03;2.75;;;;;;;;;;4802470;29;20065;-74
2022/05/30 07:55:19;;;;;;;7.53;2.70;;;;;;;;;;4791438;29;20050;-75
2022/05/30 07:57:52;;;;;;;6.43;2.70;;;;;;;;;;4803191;29;20073;-74
2022/05/30 08:00:29;;;;;;;7.68;2.65;;;;;;;;;;4802928;29;20541;-73
2022/05/30 08:03:06;;;;;;;7.75;2.40;;;;;;;;;;4802700;29;20065;-72
2022/05/30 08:05:37;;;;;;;4.30;2.20;;;;;;;;;;4803232;29;20062;-74
2022/05/30 08:08:33;;;;;;;13.98;2.83;;;;;;;;;;4819115;29;20426;-73
2022/05/30 08:11:04;;;;;;;10.52;2.60;;;;;;;;;;4819625;29;20550;-73
2022/05/30 08:13:45;;;;;;;7.60;2.30;;;;;;;;;;4802807;29;20054;-73
2022/05/30 08:16:19;;;;;;;5.38;2.33;;;;;;;;;;4802881;29;20073;-72
2022/05/30 08:19:10;;;;;;;9.00;2.38;;;;;;;;;;4802627;29;20138;-74
2022/05/30 08:22:09;;;;;;;3.45;2.22;;;;;;;;;;4803499;29;20069;-74
2022/05/30 08:24:56;;;;;;;11.25;2.17;;;;;;;;;;4802194;29;20062;-73
2022/05/30 08:27:28;;;;;;;15.43;2.75;;;;;;;;;;4802594;29;20069;-73
2022/05/30 08:30:04;;;;;;;8.30;2.45;;;;;;;;;;4802569;29;20050;-72
2022/05/30 08:32:42;;;;;;;4.75;2.25;;;;;;;;;;4818467;29;20066;-74
2022/05/30 08:35:30;;;;;;;7.32;2.33;;;;;;;;;;4823282;29;20514;-73
2022/05/30 08:38:02;;;;;;;13.00;2.30;;;;;;;;;;4802185;29;20062;-73
2022/05/30 08:43:37;;;;;;;3.95;1.95;;;;;;;;;;4802034;29;20062;-74
2022/05/30 08:46:57;;;;;;;3.47;1.98;;;;;;;;;;4807319;29;20427;-73
2022/05/30 08:49:45;;;;;;;10.60;2.53;;;;;;;;;;4802309;29;20173;-72
2022/05/30 08:52:50;;;;;;;9.93;2.55;;;;;;;;;;4802013;29;20061;-73
2022/05/30 08:55:40;;;;;;;4.72;2.10;;;;;;;;;;4802054;29;20069;-74
2022/05/30 08:58:22;;;;;;;10.45;2.65;;;;;;;;;;4789146;29;20063;-72
2022/05/30 09:01:00;;;;;;;6.75;2.30;;;;;;;;;;4781197;30;20070;-73
2022/05/30 09:04:28;;;;;;;6.88;2.10;;;;;;;;;;4762040;30;20067;-74
2022/05/30 09:07:03;;;;;;;6.80;2.00;;;;;;;;;;4776519;30;20059;-73
2022/05/30 09:09:59;;;;;;;7.20;2.05;;;;;;;;;;4781098;30;20066;-72
2022/05/30 09:12:48;;;;;;;9.30;2.22;;;;;;;;;;4780942;30;20063;-72
2022/05/30 09:15:47;;;;;;;6.65;2.30;;;;;;;;;;4781038;29;20055;-74
2022/05/30 09:18:23;;;;;;;6.03;2.35;;;;;;;;;;4781089;30;20439;-73
2022/05/30 09:20:54;;;;;;;8.75;2.70;;;;;;;;;;4781445;29;20106;-73
2022/05/30 09:23:26;;;;;;;7.10;2.67;;;;;;;;;;4780824;29;20555;-73
2022/05/30 09:26:00;;;;;;;9.40;2.50;;;;;;;;;;4780545;30;20063;-74
2022/05/30 09:28:50;;;;;;;7.82;3.28;;;;;;;;;;4783679;29;20428;-75
2022/05/30 09:32:08;;;;;;;14.27;2.33;;;;;;;;;;4786431;29;20059;-73
2022/05/30 09:34:54;;;;;;;6.97;2.10;;;;;;;;;;4783199;29;20059;-72
2022/05/30 09:38:12;;;;;;;6.72;2.25;;;;;;;;;;4773090;29;20067;-75
2022/05/30 09:41:06;;;;;;;10.65;2.10;;;;;;;;;;4782216;30;20060;-74
2022/05/30 09:44:04;;;;;;;7.97;2.30;;;;;;;;;;4781293;29;20456;-74
2022/05/30 09:46:38;;;;;;;7.55;1.92;;;;;;;;;;4780059;30;20546;-75
2022/05/30 09:49:45;;;;;;;12.18;2.42;;;;;;;;;;4783050;29;20059;-74
2022/05/30 09:52:33;;;;;;;8.57;2.50;;;;;;;;;;4782151;30;20055;-74
2022/05/30 09:55:34;;;;;;;4.90;1.85;;;;;;;;;;4780623;30;20051;-75
2022/05/30 09:58:11;;;;;;;4.47;1.98;;;;;;;;;;4780133;29;20063;-74
2022/05/30 10:00:58;;;;;;;5.32;1.92;;;;;;;;;;4780575;30;20058;-75
2022/05/30 10:03:38;;;;;;;7.78;2.20;;;;;;;;;;4780632;29;20059;-76
2022/05/30 10:06:25;;;;;;;8.63;1.98;;;;;;;;;;4782830;29;20082;-74
2022/05/30 10:09:20;;;;;;;3.40;1.60;;;;;;;;;;4785375;29;20063;-74
2022/05/30 10:11:55;;;;;;;9.30;2.05;;;;;;;;;;4780173;30;20066;-73
2022/05/30 10:14:32;;;;;;;11.32;2.80;;;;;;;;;;4780198;30;20059;-75
2022/05/30 10:17:28;;;;;;;6.10;1.75;;;;;;;;;;4780723;29;20071;-75
2022/05/30 10:20:07;;;;;;;4.35;1.83;;;;;;;;;;4779316;30;20059;-74
2022/05/30 10:30:23;;;;;;;2.72;1.50;;;;;;;;;;4781781;30;19926;-74
2022/05/30 10:33:37;;;;;;;11.27;2.47;;;;;;;;;;4780265;30;20067;-76
2022/05/30 10:36:18;;;;;;;14.57;2.72;;;;;;;;;;4779903;29;20424;-74
2022/05/30 10:39:01;;;;;;;15.65;5.25;;;;;;;;;;4780096;30;20420;-74
2022/05/30 10:41:41;;;;;;;11.63;2.95;;;;;;;;;;4779902;30;20055;-73
2022/05/30 10:44:28;;;;;;;9.40;2.40;;;;;;;;;;4780184;30;20066;-75
2022/05/30 10:47:09;;;;;;;5.25;2.17;;;;;;;;;;4780159;29;20413;-74
2022/05/30 10:50:07;;;;;;;6.72;2.72;;;;;;;;;;4779589;30;20059;-76
2022/05/30 10:52:45;;;;;;;6.82;2.58;;;;;;;;;;4782064;30;20055;-78
2022/05/30 10:55:24;;;;;;;5.93;2.55;;;;;;;;;;4783222;30;20066;-74
2022/05/30 10:58:09;;;;;;;5.55;2.13;;;;;;;;;;4799259;29;20066;-71
2022/05/30 11:01:07;;;;;;;4.30;1.83;;;;;;;;;;4803901;29;20058;-73
2022/05/30 11:03:50;;;;;;;4.97;2.08;;;;;;;;;;4803772;29;20058;-76
2022/05/30 11:06:30;;;;;;;7.00;2.00;;;;;;;;;;4803844;29;20058;-75
2022/05/30 11:09:18;;;;;;;4.90;2.30;;;;;;;;;;4803396;29;20069;-74
2022/05/30 11:12:11;;;;;;;3.63;2.10;;;;;;;;;;4820562;29;20054;-74
2022/05/30 11:14:57;;;;;;;5.25;2.13;;;;;;;;;;4820165;29;20046;-74
2022/05/30 11:18:13;;;;;;;5.82;2.10;;;;;;;;;;4782668;29;20419;-73
2022/05/30 11:21:29;;;;;;;5.95;2.17;;;;;;;;;;4790196;29;20054;-73
2022/05/30 11:24:05;;;;;;;6.88;2.10;;;;;;;;;;4803737;29;20062;-73
2022/05/30 11:26:50;;;;;;;7.55;1.95;;;;;;;;;;4820263;29;20074;-72
2022/05/30 11:29:36;;;;;;;5.10;2.00;;;;;;;;;;4819884;29;20053;-75
2022/05/30 11:32:44;;;;;;;6.00;1.65;;;;;;;;;;4802899;29;20067;-72
2022/05/30 11:35:24;;;;;;;4.70;1.90;;;;;;;;;;4793352;29;20079;-72
2022/05/30 11:38:12;;;;;;;5.88;1.50;;;;;;;;;;4819656;29;20070;-73
2022/05/30 11:41:02;;;;;;;4.78;1.70;;;;;;;;;;4820260;29;20046;-73
2022/05/30 11:43:58;;;;;;;5.03;1.55;;;;;;;;;;4820260;29;20054;-74
2022/05/30 11:47:02;;;;;;;6.22;1.65;;;;;;;;;;4819988;29;20061;-74
2022/05/30 11:49:48;;;;;;;3.83;1.60;;;;;;;;;;4799793;29;20075;-73
2022/05/30 11:52:55;;;;;;;5.68;1.65;;;;;;;;;;4819845;29;20636;-75
2022/05/30 11:55:31;;;;;;;5.43;1.55;;;;;;;;;;4820009;29;20046;-74
2022/05/30 11:58:20;;;;;;;8.02;2.35;;;;;;;;;;4819334;29;20058;-76
2022/05/30 12:00:52;;;;;;;7.30;2.25;;;;;;;;;;4819031;29;20525;-74
2022/05/30 12:03:44;;;;;;;8.95;1.85;;;;;;;;;;4819473;29;20054;-74
2022/05/30 12:06:25;;;;;;;13.85;2.47;;;;;;;;;;4803519;29;20054;-75
2022/05/30 12:09:17;;;;;;;6.07;1.52;;;;;;;;;;4802578;29;20538;-75
2022/05/30 12:12:05;;;;;;;5.63;1.65;;;;;;;;;;4819548;29;20046;-75
2022/05/30 12:15:41;;;;;;;6.93;1.73;;;;;;;;;;4819560;29;20061;-73
2022/05/30 12:24:35;;;;;;;5.50;1.63;;;;;;;;;;4819469;29;20070;-77
2022/05/30 12:27:34;;;;;;;6.20;1.70;;;;;;;;;;4818816;29;20422;-73
2022/05/30 12:30:36;;;;;;;14.07;1.50;;;;;;;;;;4819413;29;20073;-74
2022/05/30 12:33:31;;;;;;;8.07;1.40;;;;;;;;;;4816460;29;20057;-77
2022/05/30 12:36:10;;;;;;;2.50;1.40;;;;;;;;;;4803403;29;20050;-73
2022/05/30 12:38:55;;;;;;;2.30;1.17;;;;;;;;;;4819592;29;20038;-74
2022/05/30 12:41:52;;;;;;;2.80;1.20;;;;;;;;;;4819861;29;20054;-74
2022/05/30 12:44:43;;;;;;;7.65;1.40;;;;;;;;;;4819126;29;20047;-76
2022/05/30 12:47:29;;;;;;;6.90;1.45;;;;;;;;;;4818563;29;20085;-74
2022/05/30 12:50:34;;;;;;;1.60;0.98;;;;;;;;;;4818842;29;20066;-73
2022/05/30 12:53:06;;;;;;;8.75;1.17;;;;;;;;;;4727184;30;20530;-73
2022/05/30 12:55:51;;;;;;;8.45;1.27;;;;;;;;;;4808259;29;20072;-76
2022/05/30 12:58:37;;;;;;;4.78;1.10;;;;;;;;;;4818610;29;20129;-74
2022/05/30 13:01:11;;;;;;;13.93;1.50;;;;;;;;;;4816262;29;20042;-74
2022/05/30 13:03:46;;;;;;;11.82;1.73;;;;;;;;;;4818144;29;20050;-73
2022/05/30 13:06:23;;;;;;;8.38;1.52;;;;;;;;;;4818349;29;20130;-73
2022/05/30 13:09:18;;;;;;;8.10;1.55;;;;;;;;;;4819520;29;20418;-75
2022/05/30 13:12:06;;;;;;;5.25;1.50;;;;;;;;;;4818234;29;20042;-73
2022/05/30 13:15:01;;;;;;;3.47;1.10;;;;;;;;;;4817527;29;20061;-75
2022/05/30 13:18:01;;;;;;;6.18;1.85;;;;;;;;;;4817295;29;20404;-74
2022/05/30 13:20:48;;;;;;;9.27;1.40;;;;;;;;;;4817139;29;20129;-75
2022/05/30 13:23:33;;;;;;;10.40;1.63;;;;;;;;;;4818339;29;20050;-73
2022/05/30 13:26:11;;;;;;;12.90;2.05;;;;;;;;;;4817934;29;20554;-73
2022/05/30 13:28:42;;;;;;;6.15;1.55;;;;;;;;;;4817788;29;20065;-73
2022/05/30 13:31:13;;;;;;;;;;;;;;;;;;4819110;29;20050;-74
2022/05/30 13:33:52;;;;;;;6.72;1.23;;;;;;;;;;4817839;29;19932;-73
2022/05/30 13:36:31;;;;;;;7.72;1.10;;;;;;;;;;4818349;29;20057;-73
2022/05/30 13:39:03;;;;;;;6.65;1.95;;;;;;;;;;4816709;29;20054;-73
2022/05/30 13:41:39;;;;;;;4.25;1.40;;;;;;;;;;4818345;29;20065;-73
2022/05/30 13:44:34;;;;;;;5.00;1.10;;;;;;;;;;4816678;29;20058;-73
2022/05/30 13:47:12;;;;;;;4.85;1.45;;;;;;;;;;4817213;29;20541;-73
2022/05/30 13:49:50;;;;;;;5.70;1.67;;;;;;;;;;4817511;29;20058;-73
2022/05/30 13:52:30;;;;;;;4.07;1.52;;;;;;;;;;4816027;29;20046;-73
2022/05/30 13:55:08;;;;;;;12.40;2.75;;;;;;;;;;4818098;29;20446;-73
2022/05/30 13:57:40;;;;;;;6.25;1.58;;;;;;;;;;4817771;29;20073;-75
2022/05/30 14:00:29;;;;;;;12.63;1.80;;;;;;;;;;4819082;29;20062;-73
2022/05/30 14:02:59;;;;;;;6.65;1.40;;;;;;;;;;4816775;29;20050;-75
2022/05/30 14:05:36;;;;;;;6.20;1.20;;;;;;;;;;4816709;29;20070;-74
2022/05/30 14:08:36;;;;;;;6.68;1.70;;;;;;;;;;4817292;29;20046;-73
2022/05/30 14:11:08;;;;;;;5.10;1.45;;;;;;;;;;4818115;29;20070;-74
2022/05/30 14:13:44;;;;;;;4.03;1.63;;;;;;;;;;4817780;29;20046;-73
2022/05/30 14:16:37;;;;;;;8.48;1.63;;;;;;;;;;4800838;29;20050;-75
2022/05/30 14:19:24;;;;;;;5.82;1.45;;;;;;;;;;4817675;29;20768;-74
2022/05/30 14:21:58;;;;;;;3.47;1.38;;;;;;;;;;4817470;29;20525;-74
2022/05/30 14:24:34;;;;;;;7.43;1.60;;;;;;;;;;4817658;29;20046;-72
2022/05/30 14:27:16;;;;;;;4.85;1.60;;;;;;;;;;4821291;29;20050;-73
2022/05/30 14:29:48;;;;;;;6.47;1.65;;;;;;;;;;4820060;29;20062;-73
2022/05/30 14:32:18;;;;;;;3.92;1.48;;;;;;;;;;4818885;29;20069;-75
2022/05/30 14:35:14;;;;;;;6.50;1.77;;;;;;;;;;4821312;29;20418;-73
2022/05/30 14:37:50;;;;;;;4.82;1.75;;;;;;;;;;4820081;29;20126;-74
2022/05/30 14:40:21;;;;;;;4.25;1.60;;;;;;;;;;4820063;29;20057;-74
2022/05/30 14:42:56;;;;;;;8.90;1.27;;;;;;;;;;4820624;29;20058;-74
2022/05/30 14:45:42;;;;;;;5.57;1.80;;;;;;;;;;4820948;29;20061;-73
2022/05/30 14:48:21;;;;;;;9.20;1.77;;;;;;;;;;4820991;29;20055;-74
2022/05/30 14:50:56;;;;;;;7.53;1.70;;;;;;;;;;4820513;29;20395;-73
2022/05/30 14:53:30;;;;;;;9.00;1.90;;;;;;;;;;4803854;29;20081;-77
2022/05/30 14:56:05;;;;;;;6.15;1.60;;;;;;;;;;4819026;29;20066;-73
2022/05/30 14:58:39;;;;;;;11.45;2.20;;;;;;;;;;4820211;29;20058;-73
2022/05/30 15:01:32;;;;;;;28.30;4.05;;;;;;;;;;4820822;29;20061;-73
2022/05/30 15:04:12;;;;;;;2.28;1.40;;;;;;;;;;4821031;29;20058;-74
2022/05/30 15:06:47;;;;;;;8.38;1.95;;;;;;;;;;4819586;29;20047;-73
2022/05/30 15:09:19;;;;;;;5.32;1.73;;;;;;;;;;4820359;29;20050;-74
2022/05/30 15:11:50;;;;;;;4.85;1.65;;;;;;;;;;4820554;29;20058;-73
2022/05/30 15:14:22;;;;;;;9.10;1.90;;;;;;;;;;4820129;29;20885;-73
2022/05/30 15:16:54;;;;;;;8.07;2.20;;;;;;;;;;4820047;29;20049;-73
2022/05/30 15:19:24;;;;;;;16.83;3.75;;;;;;;;;;4820883;29;20050;-73
2022/05/30 15:21:57;;;;;;;10.20;3.63;;;;;;;;;;4820818;29;20054;-73
2022/05/30 15:24:33;;;;;;;6.60;2.25;;;;;;;;;;4820430;29;20133;-73
2022/05/30 15:27:06;;;;;;;6.72;1.70;;;;;;;;;;4820550;29;20082;-73
2022/05/30 15:29:36;;;;;;;7.97;1.90;;;;;;;;;;4819831;29;20058;-74
2022/05/30 15:32:10;;;;;;;9.15;2.28;;;;;;;;;;4819739;29;20054;-74
2022/05/30 15:34:40;;;;;;;12.30;2.00;;;;;;;;;;4819116;29;20065;-73
2022/05/30 15:37:13;;;;;;;4.75;1.77;;;;;;;;;;4819865;29;20073;-73
2022/05/30 15:39:46;;;;;;;3.58;1.83;;;;;;;;;;4819650;29;20046;-73
2022/05/30 15:42:20;;;;;;;6.97;2.00;;;;;;;;;;4820364;29;20050;-74
2022/05/30 15:44:53;;;;;;;12.32;2.60;;;;;;;;;;4820846;29;20050;-74
2022/05/30 15:47:23;;;;;;;7.57;1.90;;;;;;;;;;4819356;29;20057;-74
2022/05/30 15:49:53;;;;;;;7.82;2.10;;;;;;;;;;4803369;29;20526;-73
2022/05/30 15:58:16;;;;;;;10.63;2.35;;;;;;;;;;4819917;29;20422;-73
2022/05/30 16:00:51;;;;;;;5.30;2.10;;;;;;;;;;4819633;29;20050;-73
2022/05/30 16:03:25;;;;;;;8.60;2.05;;;;;;;;;;4820101;29;20062;-73
2022/05/30 16:05:56;;;;;;;5.78;2.10;;;;;;;;;;4819816;29;20051;-73
2022/05/30 16:08:39;;;;;;;9.38;2.50;;;;;;;;;;4819566;29;20058;-75
2022/05/30 16:11:13;;;;;;;8.52;2.20;;;;;;;;;;4819502;29;20511;-73
2022/05/30 16:13:43;;;;;;;4.47;1.90;;;;;;;;;;4819897;29;20046;-75
2022/05/30 16:16:14;;;;;;;7.80;2.22;;;;;;;;;;4819613;29;20085;-74
2022/05/30 16:18:45;;;;;;;6.95;2.28;;;;;;;;;;4818086;29;20089;-73
2022/05/30 16:21:18;;;;;;;9.52;2.28;;;;;;;;;;4819722;29;20069;-73
2022/05/30 16:23:50;;;;;;;8.15;2.45;;;;;;;;;;4819731;29;20046;-73
2022/05/30 16:26:30;;;;;;;6.38;2.50;;;;;;;;;;4819286;29;20054;-73
2022/05/30 16:29:00;;;;;;;8.70;2.60;;;;;;;;;;4819306;29;20494;-73
2022/05/30 16:31:31;;;;;;;19.20;3.28;;;;;;;;;;4819643;29;20057;-73
2022/05/30 16:34:01;;;;;;;8.40;2.78;;;;;;;;;;4819434;29;20054;-74